Time;durP1;ratioP1;P1;durP2;ratioP2;P2;SDS_P1;SDS_P2;PMS_P1;PMS_P2;Temp;Humidity;BMP_temperature;BMP_pressure;BME280_temperature;BME280_humidity;BME280_pressure;Samples;Min_cycle;Max_cycle;Signal;HPM_P1;HPM_P2
2023/03/02 00:01:45;;;;;;;5.07;4.57;;;;;;;6.48;88.53;95380.94;5024490;28;20213;-61
2023/03/02 00:04:17;;;;;;;5.85;5.32;;;;;;;6.44;88.46;95379.28;5027468;28;20214;-61
2023/03/02 00:06:44;;;;;;;5.60;5.13;;;;;;;6.43;87.95;95377.66;5006866;28;20226;-59
2023/03/02 00:09:12;;;;;;;4.85;4.45;;;;;;;6.45;88.20;95374.22;5027595;28;20283;-62
2023/03/02 00:11:39;;;;;;;4.88;4.47;;;;;;;6.51;88.05;95370.78;5031015;28;20206;-60
2023/03/02 00:14:06;;;;;;;5.40;4.90;;;;;;;6.49;87.57;95367.44;5028466;28;20283;-60
2023/03/02 00:16:33;;;;;;;5.20;4.80;;;;;;;6.55;87.91;95372.44;5028515;28;20684;-59
2023/03/02 00:18:59;;;;;;;4.47;4.10;;;;;;;6.51;88.58;95370.78;5027794;28;20214;-62
2023/03/02 00:21:26;;;;;;;4.50;4.10;;;;;;;6.45;88.60;95368.34;5028977;28;20210;-61
2023/03/02 00:23:53;;;;;;;3.47;3.22;;;;;;;6.37;88.32;95370.16;5028307;28;20209;-62
2023/03/02 00:26:21;;;;;;;3.50;3.20;;;;;;;6.34;88.16;95355.03;5028232;28;20226;-63
2023/03/02 00:28:48;;;;;;;3.83;3.53;;;;;;;6.33;89.42;95345.78;5028304;28;20206;-59
2023/03/02 00:31:14;;;;;;;4.50;4.20;;;;;;;6.30;89.91;95348.34;5030223;28;20211;-60
2023/03/02 00:33:41;;;;;;;4.53;4.22;;;;;;;6.44;88.37;95354.88;5028686;28;20263;-62
2023/03/02 00:36:15;;;;;;;5.72;4.88;;;;;;;6.22;89.70;95353.50;5027848;28;22794;-61
2023/03/02 00:38:42;;;;;;;4.28;3.97;;;;;;;6.10;89.31;95339.34;5030193;28;20260;-63
2023/03/02 00:41:08;;;;;;;4.10;3.80;;;;;;;6.20;88.95;95337.53;5028789;28;20279;-64
2023/03/02 00:43:36;;;;;;;4.80;4.40;;;;;;;6.31;89.22;95338.25;5028843;28;20271;-63
2023/03/02 00:46:09;;;;;;;4.05;3.75;;;;;;;6.20;89.15;95334.16;5028610;28;20660;-61
2023/03/02 00:48:36;;;;;;;3.67;3.45;;;;;;;6.14;89.97;95340.97;5022577;28;20210;-63
2023/03/02 00:51:03;;;;;;;5.13;4.68;;;;;;;6.10;90.00;95331.78;5024603;28;20241;-62
2023/03/02 00:53:29;;;;;;;4.85;4.50;;;;;;;6.01;89.84;95334.41;5025739;28;20213;-60
2023/03/02 00:55:56;;;;;;;3.95;3.65;;;;;;;5.97;89.39;95342.84;5024657;28;20203;-64
2023/03/02 00:58:23;;;;;;;3.40;3.10;;;;;;;5.99;90.35;95331.06;5029109;28;20199;-64
2023/03/02 01:00:51;;;;;;;3.50;3.15;;;;;;;5.98;89.84;95324.34;5026690;28;20206;-64
2023/03/02 01:03:18;;;;;;;3.00;2.90;;;;;;;5.93;90.09;95316.00;5028250;28;20210;-61
2023/03/02 01:05:45;;;;;;;3.97;3.67;;;;;;;5.99;90.09;95308.34;5027653;28;20651;-62
2023/03/02 01:08:12;;;;;;;3.30;3.10;;;;;;;6.05;89.63;95305.75;5025223;28;20210;-65
2023/03/02 01:10:39;;;;;;;3.50;3.30;;;;;;;5.88;89.54;95301.75;5027662;28;20202;-64
2023/03/02 01:13:06;;;;;;;3.80;3.30;;;;;;;5.96;89.48;95310.06;5029665;28;20194;-61
2023/03/02 01:15:34;;;;;;;2.92;2.72;;;;;;;5.95;89.63;95306.72;5028261;28;20213;-59
2023/03/02 01:18:02;;;;;;;3.63;3.33;;;;;;;5.84;90.00;95300.09;5027842;28;20202;-62
2023/03/02 01:20:29;;;;;;;3.03;2.35;;;;;;;5.84;89.68;95302.63;5027198;28;21228;-60
2023/03/02 01:22:56;;;;;;;2.88;2.67;;;;;;;5.88;89.62;95300.06;5028788;28;20989;-67
2023/03/02 01:25:23;;;;;;;3.25;2.53;;;;;;;5.85;90.11;95297.56;5026055;28;20739;-65
2023/03/02 01:27:49;;;;;;;2.20;2.00;;;;;;;5.90;90.31;95305.97;5027136;28;20202;-63
2023/03/02 01:30:17;;;;;;;3.22;3.03;;;;;;;5.85;90.58;95300.09;5028887;28;20213;-61
2023/03/02 01:32:44;;;;;;;2.60;2.40;;;;;;;5.85;90.95;95297.56;5027300;28;20206;-61
2023/03/02 01:35:13;;;;;;;2.85;2.65;;;;;;;5.81;90.79;95300.97;5025982;28;20215;-65
2023/03/02 01:37:40;;;;;;;3.55;3.25;;;;;;;5.74;91.21;95304.41;5026261;28;20208;-61
2023/03/02 01:40:08;;;;;;;3.40;2.28;;;;;;;5.88;90.54;95295.00;5027480;28;20235;-62
2023/03/02 01:42:38;;;;;;;2.15;1.95;;;;;;;5.74;91.36;95299.38;5027255;28;20611;-63
2023/03/02 01:45:06;;;;;;;2.00;1.80;;;;;;;5.75;91.11;95298.50;5026017;28;20252;-64
2023/03/02 01:47:36;;;;;;;2.00;1.80;;;;;;;5.70;91.68;95298.56;5026552;28;20226;-61
2023/03/02 01:50:09;;;;;;;2.22;2.13;;;;;;;5.65;92.14;95295.28;5022096;28;20231;-64
2023/03/02 01:52:38;;;;;;;2.85;2.65;;;;;;;5.63;92.58;95293.63;5021631;28;20216;-64
2023/03/02 01:55:09;;;;;;;2.60;2.40;;;;;;;5.73;91.88;95287.59;5015943;28;20899;-62
2023/03/02 01:57:42;;;;;;;2.67;2.58;;;;;;;5.74;91.70;95289.28;5017190;28;20201;-61
2023/03/02 02:00:13;;;;;;;2.78;2.28;;;;;;;5.75;91.42;95288.44;5015296;28;20306;-63
2023/03/02 02:02:41;;;;;;;3.03;2.83;;;;;;;5.66;91.60;95281.00;5019452;28;20260;-65
2023/03/02 02:05:09;;;;;;;2.10;1.90;;;;;;;5.63;92.12;95291.09;5018506;28;20207;-65
2023/03/02 02:07:38;;;;;;;3.13;2.17;;;;;;;5.66;91.85;95274.25;5014994;28;20226;-59
2023/03/02 02:10:06;;;;;;;3.40;3.20;;;;;;;5.82;92.04;95282.47;5018389;28;20214;-59
2023/03/02 02:12:33;;;;;;;2.50;2.40;;;;;;;5.92;91.08;95286.59;5015935;28;20606;-64
2023/03/02 02:15:01;;;;;;;3.33;3.05;;;;;;;5.88;90.49;95272.31;5022202;28;20207;-59
2023/03/02 02:17:28;;;;;;;3.00;2.80;;;;;;;5.90;91.26;95275.69;5020530;28;20235;-59
2023/03/02 02:20:06;;;;;;;2.88;2.67;;;;;;;5.93;91.12;95285.75;5019770;28;20211;-62
2023/03/02 02:22:50;;;;;;;3.55;3.25;;;;;;;5.94;90.91;95282.34;5022962;28;20297;-62
2023/03/02 02:25:30;;;;;;;2.78;2.65;;;;;;;5.99;90.90;95283.13;5017568;28;20252;-62
2023/03/02 02:27:59;;;;;;;3.05;2.85;;;;;;;5.95;90.76;95281.50;5017447;28;20669;-61
2023/03/02 02:30:28;;;;;;;2.63;2.42;;;;;;;5.87;91.54;95287.47;5018555;28;20202;-61
2023/03/02 02:32:57;;;;;;;2.63;2.40;;;;;;;5.86;91.37;95283.28;5016977;28;20202;-59
2023/03/02 02:35:27;;;;;;;2.50;2.30;;;;;;;5.84;91.11;95290.03;5018740;28;20203;-64
2023/03/02 02:37:57;;;;;;;3.08;2.67;;;;;;;5.84;91.05;95292.53;5015608;28;20215;-60
2023/03/02 02:40:42;;;;;;;3.45;2.75;;;;;;;5.76;91.76;95280.00;5017671;28;20268;-62
2023/03/02 02:43:12;;;;;;;3.28;2.97;;;;;;;5.66;92.15;95271.72;5019178;28;20203;-62
2023/03/02 02:45:39;;;;;;;3.55;2.50;;;;;;;5.62;92.33;95277.66;5021939;28;20277;-61
2023/03/02 02:48:11;;;;;;;2.65;2.33;;;;;;;5.57;92.41;95288.63;5020778;28;20203;-63
2023/03/02 02:50:38;;;;;;;2.10;2.00;;;;;;;5.56;92.12;95285.28;5025430;28;20625;-63
2023/03/02 02:53:10;;;;;;;2.55;2.35;;;;;;;5.61;92.00;95287.75;5027809;28;21745;-61
2023/03/02 02:55:38;;;;;;;2.72;2.53;;;;;;;5.60;91.95;95281.03;5027318;28;20671;-63
2023/03/02 02:58:20;;;;;;;2.28;2.10;;;;;;;5.60;91.76;95271.78;5026277;28;20203;-60
2023/03/02 03:00:47;;;;;;;2.63;2.42;;;;;;;5.42;91.40;95242.59;5025859;28;20206;-64
2023/03/02 03:03:29;;;;;;;2.03;1.92;;;;;;;5.68;90.98;95275.06;5026456;28;21801;-62
2023/03/02 03:05:57;;;;;;;5.85;3.05;;;;;;;5.62;91.16;95271.78;5025646;28;20263;-64
2023/03/02 03:09:00;;;;;;;2.30;2.20;;;;;;;5.65;90.70;95274.28;5025849;28;20212;-63
2023/03/02 03:11:29;;;;;;;2.05;1.95;;;;;;;5.61;90.54;95272.63;4959396;28;20208;-64
2023/03/02 03:14:03;;;;;;;2.60;2.40;;;;;;;5.67;90.46;95267.53;4959298;28;20339;-63
2023/03/02 03:16:32;;;;;;;1.83;1.73;;;;;;;5.59;90.50;95269.28;4995001;28;20263;-63
2023/03/02 03:19:05;;;;;;;2.10;1.90;;;;;;;5.50;91.17;95269.38;5025847;28;20206;-64
2023/03/02 03:21:32;;;;;;;1.92;1.83;;;;;;;5.55;90.05;95273.53;5026701;28;20656;-63
2023/03/02 03:23:58;;;;;;;1.88;1.77;;;;;;;5.51;91.21;95260.97;5027312;28;20202;-63
2023/03/02 03:26:25;;;;;;;1.27;1.23;;;;;;;5.60;90.75;95268.44;5027067;28;20226;-64
2023/03/02 03:28:52;;;;;;;2.35;2.17;;;;;;;5.67;90.48;95259.97;5025450;28;20210;-60
2023/03/02 03:31:20;;;;;;;1.83;1.73;;;;;;;5.73;89.93;95267.44;5026191;28;20341;-63
2023/03/02 03:33:48;;;;;;;5.53;1.73;;;;;;;5.81;90.00;95270.72;5024952;28;20546;-64
2023/03/02 03:36:16;;;;;;;1.98;1.55;;;;;;;5.70;90.12;95265.78;5026107;28;20208;-61
2023/03/02 03:38:43;;;;;;;1.33;1.25;;;;;;;5.71;89.97;95264.94;5028202;28;20641;-65
2023/03/02 03:41:10;;;;;;;2.47;1.90;;;;;;;5.66;90.00;95270.91;5029059;28;20645;-62
2023/03/02 03:43:37;;;;;;;2.00;1.80;;;;;;;5.72;89.75;95271.63;5029647;28;20202;-59
2023/03/02 03:46:04;;;;;;;2.10;1.90;;;;;;;5.76;90.14;95269.94;5029328;28;20271;-61
2023/03/02 03:48:32;;;;;;;1.90;1.80;;;;;;;5.86;89.79;95268.97;5029913;28;20202;-63
2023/03/02 03:50:59;;;;;;;1.95;1.85;;;;;;;5.78;89.55;95266.53;5022311;28;20238;-61
2023/03/02 03:53:26;;;;;;;2.00;1.90;;;;;;;5.75;90.23;95268.25;5020021;28;20242;-60
2023/03/02 03:55:53;;;;;;;1.73;1.63;;;;;;;5.79;90.12;95265.69;5018420;28;20240;-64
2023/03/02 03:58:20;;;;;;;1.92;1.83;;;;;;;5.81;89.45;95274.06;5021082;28;20675;-62
2023/03/02 04:00:46;;;;;;;3.95;2.22;;;;;;;5.86;89.48;95266.44;5021352;28;20207;-64
2023/03/02 04:03:13;;;;;;;2.97;2.17;;;;;;;5.82;89.63;95272.38;5023212;28;20199;-65
2023/03/02 04:05:41;;;;;;;2.55;2.35;;;;;;;5.88;89.91;95277.34;5017967;28;20215;-65
2023/03/02 04:08:09;;;;;;;2.35;2.22;;;;;;;5.89;89.42;95273.19;5018879;28;20305;-63
2023/03/02 04:10:36;;;;;;;1.58;1.48;;;;;;;5.80;90.01;95269.03;5019982;28;20202;-63
2023/03/02 04:13:03;;;;;;;2.90;2.17;;;;;;;5.75;90.55;95271.59;5021147;28;20684;-64
2023/03/02 04:15:30;;;;;;;1.73;1.50;;;;;;;5.64;91.36;95272.59;5021830;28;20210;-62
2023/03/02 04:17:57;;;;;;;1.55;1.45;;;;;;;5.73;91.09;95264.91;5021293;28;21628;-61
2023/03/02 04:20:25;;;;;;;1.95;1.77;;;;;;;5.78;91.26;95261.50;5020865;28;20211;-61
2023/03/02 04:22:54;;;;;;;1.38;1.38;;;;;;;5.71;91.71;95264.94;5024371;28;20283;-65
2023/03/02 04:25:24;;;;;;;1.85;1.75;;;;;;;5.66;92.19;95264.16;5019019;28;20207;-64
2023/03/02 04:27:53;;;;;;;2.58;1.70;;;;;;;5.60;92.33;95265.91;5018769;28;20231;-61
2023/03/02 04:30:23;;;;;;;1.35;1.25;;;;;;;5.65;92.49;95254.09;5021589;28;20225;-61
2023/03/02 04:32:49;;;;;;;1.60;1.50;;;;;;;5.53;92.49;95259.28;5019786;28;20198;-64
2023/03/02 04:35:16;;;;;;;1.63;1.52;;;;;;;5.57;92.19;95255.88;5016821;28;20214;-65
2023/03/02 04:37:45;;;;;;;1.95;1.85;;;;;;;5.68;92.43;95270.03;5014920;28;20211;-63
2023/03/02 04:40:15;;;;;;;1.92;1.83;;;;;;;5.75;91.66;95261.53;5019442;28;20248;-62
2023/03/02 04:42:43;;;;;;;2.05;1.95;;;;;;;5.85;91.65;95266.47;5021836;28;20720;-63
2023/03/02 04:45:11;;;;;;;2.28;2.17;;;;;;;5.90;90.76;95265.59;5017114;28;20684;-61
2023/03/02 04:47:37;;;;;;;2.20;2.10;;;;;;;5.90;90.83;95277.38;5019966;28;20303;-64
2023/03/02 04:50:05;;;;;;;3.13;2.92;;;;;;;5.93;90.41;95285.75;5020618;28;20243;-63
2023/03/02 04:52:32;;;;;;;3.30;3.10;;;;;;;5.91;90.25;95291.66;5020086;28;20322;-63
2023/03/02 04:54:58;;;;;;;2.97;2.67;;;;;;;5.84;89.88;95283.28;5017045;28;21040;-61
2023/03/02 04:57:26;;;;;;;3.03;2.83;;;;;;;5.91;90.58;95287.44;5021612;28;20878;-61
2023/03/02 04:59:53;;;;;;;6.40;2.28;;;;;;;5.86;90.52;95279.06;5017246;28;20296;-64
2023/03/02 05:02:20;;;;;;;3.10;2.90;;;;;;;5.87;91.60;95278.22;5021159;28;20202;-63
2023/03/02 05:04:47;;;;;;;3.13;2.92;;;;;;;5.75;92.20;95275.81;5024483;28;20312;-62
2023/03/02 05:07:13;;;;;;;2.38;2.28;;;;;;;5.82;92.36;95273.22;5019505;28;20411;-60
2023/03/02 05:09:40;;;;;;;3.10;2.90;;;;;;;5.94;92.82;95277.28;5016281;28;20724;-65
2023/03/02 05:12:07;;;;;;;3.38;2.50;;;;;;;5.86;92.22;95279.06;5021290;28;20211;-62
2023/03/02 05:14:35;;;;;;;3.05;2.45;;;;;;;5.88;92.49;95286.63;5022605;28;20262;-63
2023/03/02 05:17:02;;;;;;;2.95;2.70;;;;;;;5.77;91.67;95290.09;5017051;28;20208;-61
2023/03/02 05:19:29;;;;;;;2.40;2.20;;;;;;;5.80;92.85;95287.53;5017214;28;21309;-59
2023/03/02 05:21:56;;;;;;;2.95;2.75;;;;;;;5.80;91.32;95289.22;5018299;28;20211;-60
2023/03/02 05:24:23;;;;;;;2.92;2.72;;;;;;;5.73;91.88;95280.03;5019180;28;20206;-61
2023/03/02 05:26:50;;;;;;;3.25;2.15;;;;;;;5.71;91.97;95291.81;5014848;28;20235;-64
2023/03/02 05:29:17;;;;;;;3.00;2.80;;;;;;;5.87;91.77;95290.81;5018272;28;20692;-63
2023/03/02 05:31:46;;;;;;;3.00;2.80;;;;;;;5.80;91.35;95290.06;5017850;28;20214;-61
2023/03/02 05:34:16;;;;;;;3.13;2.92;;;;;;;5.91;91.66;95291.66;5021198;28;20203;-65
2023/03/02 05:36:43;;;;;;;2.95;2.72;;;;;;;5.97;90.43;95307.53;5020998;28;20199;-63
2023/03/02 05:39:11;;;;;;;3.67;3.40;;;;;;;6.04;90.48;95301.56;5014789;28;20301;-64
2023/03/02 05:41:38;;;;;;;5.03;3.22;;;;;;;6.20;90.29;95297.16;5021233;28;20741;-64
2023/03/02 05:44:08;;;;;;;3.38;3.17;;;;;;;6.20;89.35;95301.38;5022766;28;20710;-62
2023/03/02 05:46:35;;;;;;;3.58;3.22;;;;;;;6.16;89.92;95297.22;5015135;28;20635;-63
2023/03/02 05:49:03;;;;;;;3.85;3.55;;;;;;;6.19;89.35;95302.25;5017847;28;20253;-63
2023/03/02 05:51:30;;;;;;;3.30;3.00;;;;;;;6.03;89.76;95306.63;5020579;28;20662;-66
2023/03/02 05:53:57;;;;;;;3.33;3.13;;;;;;;5.96;89.82;95305.84;5017586;28;20209;-64
2023/03/02 05:56:23;;;;;;;3.75;3.50;;;;;;;6.01;90.49;95308.34;5018388;28;20579;-63
2023/03/02 05:58:50;;;;;;;3.65;3.45;;;;;;;6.00;90.44;95304.97;5015699;28;20263;-62
2023/03/02 06:01:17;;;;;;;4.10;3.80;;;;;;;5.94;90.29;95306.75;5018624;28;20739;-61
2023/03/02 06:03:43;;;;;;;4.13;3.83;;;;;;;6.01;90.44;95303.28;5016142;28;20218;-60
2023/03/02 06:06:13;;;;;;;4.78;4.47;;;;;;;6.16;89.67;95299.75;5017998;28;20865;-64
2023/03/02 06:08:40;;;;;;;5.00;4.60;;;;;;;6.20;90.27;95308.94;5015769;28;20233;-64
2023/03/02 06:11:08;;;;;;;4.88;4.43;;;;;;;6.17;89.43;95309.00;5017539;28;20206;-65
2023/03/02 06:13:35;;;;;;;4.25;3.95;;;;;;;6.16;89.64;95297.22;5018316;28;20214;-61
2023/03/02 06:16:02;;;;;;;6.15;4.93;;;;;;;6.25;90.13;95319.81;5019164;28;20282;-62
2023/03/02 06:18:28;;;;;;;4.25;4.00;;;;;;;6.12;89.12;95319.97;5017778;28;20289;-61
2023/03/02 06:20:55;;;;;;;4.25;3.85;;;;;;;6.19;89.24;95328.28;5018749;28;21804;-60
2023/03/02 06:23:23;;;;;;;4.38;4.03;;;;;;;6.23;89.03;95321.50;5017553;28;20211;-62
2023/03/02 06:25:50;;;;;;;4.47;4.07;;;;;;;6.33;89.48;95328.97;5020859;28;20694;-62
2023/03/02 06:28:18;;;;;;;3.78;3.58;;;;;;;6.37;88.85;95327.25;5017111;28;21465;-63
2023/03/02 06:30:47;;;;;;;5.35;4.53;;;;;;;6.23;88.96;95322.34;5021734;28;20222;-64
2023/03/02 06:33:14;;;;;;;3.92;3.63;;;;;;;6.19;89.79;95327.47;5017512;28;20801;-64
2023/03/02 06:35:41;;;;;;;5.13;4.72;;;;;;;6.23;89.21;95326.56;5015594;28;20214;-64
2023/03/02 06:38:08;;;;;;;4.68;4.38;;;;;;;6.24;89.33;95325.72;5016642;28;20202;-63
2023/03/02 06:40:36;;;;;;;4.82;4.53;;;;;;;6.35;88.58;95334.81;5018032;28;20590;-64
2023/03/02 06:43:02;;;;;;;4.63;4.32;;;;;;;6.42;89.35;95328.03;5018013;28;20205;-63
2023/03/02 06:45:32;;;;;;;5.38;4.93;;;;;;;6.26;89.37;95324.84;5017799;28;20215;-64
2023/03/02 06:47:59;;;;;;;5.57;5.07;;;;;;;6.29;88.85;95319.75;5019301;28;20233;-63
2023/03/02 06:50:26;;;;;;;5.07;4.57;;;;;;;6.41;88.43;95314.56;5016114;28;20288;-65
2023/03/02 06:52:53;;;;;;;9.18;4.80;;;;;;;6.32;88.97;95324.75;5015326;28;20217;-64
2023/03/02 06:55:19;;;;;;;5.47;4.85;;;;;;;6.32;88.35;95318.88;5020271;28;20261;-61
2023/03/02 06:57:47;;;;;;;4.93;4.47;;;;;;;6.27;88.52;95339.13;5016862;28;20206;-64
2023/03/02 07:00:16;;;;;;;5.35;4.88;;;;;;;6.22;89.35;95332.47;5017802;28;20684;-66
2023/03/02 07:02:43;;;;;;;4.13;3.83;;;;;;;6.24;89.52;95323.19;5018265;28;20208;-61
2023/03/02 07:05:10;;;;;;;5.43;4.93;;;;;;;6.40;89.81;95327.19;5015041;28;20305;-64
2023/03/02 07:07:37;;;;;;;5.28;4.88;;;;;;;6.45;90.14;95320.38;5017369;28;20494;-65
2023/03/02 07:10:05;;;;;;;7.68;4.43;;;;;;;6.37;89.26;95317.16;5020488;28;20243;-64
2023/03/02 07:12:32;;;;;;;4.95;4.65;;;;;;;6.19;88.94;95317.38;5017797;28;20206;-63
2023/03/02 07:15:00;;;;;;;5.68;5.20;;;;;;;6.18;89.58;95320.75;5017832;28;20211;-61
2023/03/02 07:17:27;;;;;;;4.65;4.25;;;;;;;6.32;89.92;95328.97;5019835;28;20228;-64
2023/03/02 07:19:54;;;;;;;5.93;4.50;;;;;;;6.46;88.43;95327.94;5015805;28;20684;-64
2023/03/02 07:22:21;;;;;;;3.78;3.55;;;;;;;6.43;88.65;95329.69;5018082;28;20653;-62
2023/03/02 07:24:47;;;;;;;4.28;3.88;;;;;;;6.28;88.81;95320.59;5018292;28;21552;-62
2023/03/02 07:27:14;;;;;;;4.45;4.05;;;;;;;6.33;88.55;95330.66;5026123;28;20207;-64
2023/03/02 07:29:41;;;;;;;4.55;4.15;;;;;;;6.44;88.61;95319.53;5020557;28;20211;-67
2023/03/02 07:32:09;;;;;;;3.80;3.50;;;;;;;6.44;87.80;95333.84;5023802;28;21590;-67
2023/03/02 07:34:35;;;;;;;4.18;3.83;;;;;;;6.36;87.75;95333.97;5019780;28;20207;-63
2023/03/02 07:37:02;;;;;;;3.80;3.50;;;;;;;6.38;88.03;95334.78;5022429;28;20273;-62
2023/03/02 07:39:29;;;;;;;17.90;4.30;;;;;;;6.42;87.59;95330.53;5021581;28;20728;-62
2023/03/02 07:41:58;;;;;;;26.20;6.03;;;;;;;6.45;88.44;95338.03;5018842;28;20207;-62
2023/03/02 07:44:24;;;;;;;5.47;5.00;;;;;;;6.51;89.03;95330.41;5019862;28;20207;-62
2023/03/02 07:46:51;;;;;;;4.43;4.13;;;;;;;6.74;88.46;95330.06;5023719;28;21135;-63
2023/03/02 07:49:19;;;;;;;4.93;4.53;;;;;;;7.00;88.65;95332.22;5023683;28;20223;-64
2023/03/02 07:51:46;;;;;;;5.65;4.43;;;;;;;7.02;87.02;95330.50;5018841;28;20579;-64
2023/03/02 07:54:13;;;;;;;7.90;5.28;;;;;;;7.23;85.96;95322.56;5021514;28;20238;-65
2023/03/02 07:56:40;;;;;;;4.88;4.47;;;;;;;7.20;86.40;95326.84;5022331;28;20211;-63
2023/03/02 07:59:07;;;;;;;4.05;3.75;;;;;;;7.16;86.32;95331.97;5021173;28;20661;-65
2023/03/02 08:01:34;;;;;;;8.02;4.75;;;;;;;7.09;86.04;95317.75;5021866;28;20211;-66
2023/03/02 08:04:01;;;;;;;4.57;4.28;;;;;;;7.08;85.74;95318.59;5021244;28;20264;-64
2023/03/02 08:06:29;;;;;;;5.15;3.38;;;;;;;7.06;84.81;95320.31;5023565;28;20199;-66
2023/03/02 08:08:56;;;;;;;4.45;4.15;;;;;;;7.03;85.31;95324.59;5018164;28;20227;-64
2023/03/02 08:11:22;;;;;;;4.78;4.47;;;;;;;7.12;85.47;95316.88;5020521;28;20214;-65
2023/03/02 08:13:49;;;;;;;4.97;4.57;;;;;;;7.20;86.02;95327.66;5020525;28;20266;-63
2023/03/02 08:16:16;;;;;;;5.28;4.88;;;;;;;7.22;85.27;95325.97;5019801;28;20725;-65
2023/03/02 08:18:43;;;;;;;6.05;4.47;;;;;;;7.33;84.83;95329.16;5021368;28;20253;-63
2023/03/02 08:21:14;;;;;;;12.63;5.72;;;;;;;7.25;84.75;95320.84;5021723;28;21826;-61
2023/03/02 08:23:42;;;;;;;5.57;4.13;;;;;;;7.18;85.97;95315.06;5020651;28;20761;-63
2023/03/02 08:26:09;;;;;;;16.48;5.07;;;;;;;7.24;84.74;95314.13;5017812;28;20317;-62
2023/03/02 08:28:36;;;;;;;8.80;4.65;;;;;;;7.22;85.95;95320.91;5020521;28;21115;-67
2023/03/02 08:31:04;;;;;;;4.85;4.15;;;;;;;7.08;85.90;95323.66;5022288;28;20272;-62
2023/03/02 08:33:31;;;;;;;4.00;3.70;;;;;;;6.99;85.71;95312.84;5020754;28;20199;-65
2023/03/02 08:35:59;;;;;;;5.05;4.72;;;;;;;6.99;85.91;95312.84;5022282;28;20264;-62
2023/03/02 08:38:27;;;;;;;5.70;4.30;;;;;;;7.04;86.19;95306.88;5025558;28;20198;-63
2023/03/02 08:40:55;;;;;;;5.18;4.78;;;;;;;7.08;85.79;95307.66;5025534;28;20286;-61
2023/03/02 08:43:24;;;;;;;5.15;4.72;;;;;;;7.23;85.63;95311.63;5020457;28;20207;-65
2023/03/02 08:45:52;;;;;;;5.05;4.65;;;;;;;7.37;85.29;95305.50;5018884;28;20276;-63
2023/03/02 08:48:19;;;;;;;5.28;3.88;;;;;;;7.35;85.17;95306.38;5022352;28;20221;-65
2023/03/02 08:50:55;;;;;;;5.05;4.72;;;;;;;7.19;85.03;95315.91;5020449;28;20660;-65
2023/03/02 08:53:22;;;;;;;4.80;4.47;;;;;;;7.13;85.53;95313.50;5019774;28;20202;-67
2023/03/02 08:55:48;;;;;;;5.20;4.70;;;;;;;7.03;85.55;95309.44;5020931;28;20206;-61
2023/03/02 08:58:17;;;;;;;5.22;4.70;;;;;;;7.04;85.59;95309.41;5018380;28;20563;-66
2023/03/02 09:00:43;;;;;;;4.93;4.53;;;;;;;6.95;85.28;95313.75;5019058;28;20291;-65
2023/03/02 09:03:10;;;;;;;24.65;7.07;;;;;;;7.02;85.81;95310.28;5019352;28;20897;-65
2023/03/02 09:05:37;;;;;;;11.82;5.93;;;;;;;7.09;85.31;95305.13;5018495;28;20203;-62
2023/03/02 09:08:04;;;;;;;15.65;7.30;;;;;;;7.31;85.49;95294.66;5018740;28;21775;-64
2023/03/02 09:10:31;;;;;;;9.13;6.63;;;;;;;7.60;85.02;95299.19;5021722;28;20207;-64
2023/03/02 09:12:58;;;;;;;6.22;5.72;;;;;;;7.68;85.15;95289.75;5019861;28;20693;-64
2023/03/02 09:15:26;;;;;;;8.10;6.13;;;;;;;7.97;83.80;95297.63;5021552;28;20225;-68
2023/03/02 09:17:53;;;;;;;7.60;6.20;;;;;;;7.89;83.05;95299.47;5018417;28;20207;-68
2023/03/02 09:20:21;;;;;;;6.63;5.63;;;;;;;7.97;82.91;95301.84;5019099;28;20286;-62
2023/03/02 09:22:49;;;;;;;7.43;5.68;;;;;;;7.82;82.64;95302.97;5021323;28;20684;-61
2023/03/02 09:25:17;;;;;;;7.43;5.70;;;;;;;7.57;82.42;95304.31;5018471;28;20210;-60
2023/03/02 09:27:44;;;;;;;6.80;6.22;;;;;;;7.58;83.44;95309.34;5024963;28;20252;-65
2023/03/02 09:30:13;;;;;;;6.45;5.95;;;;;;;7.75;83.10;95309.00;5021418;28;20203;-64
2023/03/02 09:32:41;;;;;;;9.32;6.10;;;;;;;7.92;82.26;95309.50;5018593;28;20683;-67
2023/03/02 09:35:09;;;;;;;5.25;4.85;;;;;;;8.07;81.27;95294.06;5015678;28;20207;-62
2023/03/02 09:37:37;;;;;;;5.03;4.72;;;;;;;8.22;80.81;95302.19;5017090;28;20201;-65
2023/03/02 09:40:13;;;;;;;5.85;5.28;;;;;;;8.31;80.85;95286.81;5016075;28;20312;-61
2023/03/02 09:42:53;;;;;;;6.20;5.60;;;;;;;8.56;79.23;95297.28;5018901;28;20207;-63
2023/03/02 09:45:39;;;;;;;6.13;5.63;;;;;;;8.87;79.90;95288.13;5022752;28;20201;-65
2023/03/02 09:48:18;;;;;;;5.22;4.82;;;;;;;8.73;78.50;95300.25;5020745;28;20202;-62
2023/03/02 09:50:53;;;;;;;6.35;5.85;;;;;;;8.84;80.27;95283.94;5018846;28;20246;-62
2023/03/02 09:53:40;;;;;;;6.22;5.72;;;;;;;8.88;79.25;95304.16;5019942;28;20214;-61
2023/03/02 09:56:15;;;;;;;5.95;5.45;;;;;;;8.50;79.18;95283.03;5014005;28;20215;-63
2023/03/02 09:58:47;;;;;;;6.93;6.28;;;;;;;8.45;81.07;95293.25;5019887;28;20232;-64
2023/03/02 10:01:28;;;;;;;7.78;7.05;;;;;;;8.41;81.27;95293.38;5020908;28;20199;-65
2023/03/02 10:04:06;;;;;;;8.02;7.32;;;;;;;8.41;80.91;95294.19;5021309;28;20269;-63
2023/03/02 10:06:33;;;;;;;7.07;6.57;;;;;;;8.50;79.92;95288.09;5020736;28;20202;-66
2023/03/02 10:09:00;;;;;;;6.82;6.22;;;;;;;8.30;80.88;95290.22;5015105;28;20230;-65
2023/03/02 10:11:38;;;;;;;7.35;6.65;;;;;;;8.32;80.68;95285.94;5019568;28;20211;-62
2023/03/02 10:14:10;;;;;;;7.10;6.50;;;;;;;8.22;81.87;95297.94;5020647;28;20275;-66
2023/03/02 10:16:43;;;;;;;6.85;6.22;;;;;;;8.20;81.03;95303.03;5019407;28;20759;-65
2023/03/02 10:19:18;;;;;;;6.32;5.90;;;;;;;8.08;81.31;95295.72;5014618;28;20576;-62
2023/03/02 10:21:47;;;;;;;9.25;6.70;;;;;;;8.03;81.40;95292.44;5019210;28;20348;-61
2023/03/02 10:24:32;;;;;;;6.35;5.72;;;;;;;7.94;81.24;95301.91;5018201;28;20207;-66
2023/03/02 10:27:11;;;;;;;6.30;5.75;;;;;;;7.92;80.39;95294.34;5018786;28;20222;-65
2023/03/02 10:29:50;;;;;;;6.13;5.68;;;;;;;7.80;80.91;95275.19;5017245;28;20734;-62
2023/03/02 10:32:21;;;;;;;6.78;6.05;;;;;;;7.81;81.56;95281.06;5023420;28;20731;-62
2023/03/02 10:34:51;;;;;;;5.72;5.28;;;;;;;7.90;81.07;95283.44;5016215;28;20265;-61
2023/03/02 10:37:21;;;;;;;8.05;5.47;;;;;;;7.95;80.78;95289.22;5014772;28;20276;-64
2023/03/02 10:39:48;;;;;;;5.10;4.70;;;;;;;7.82;80.80;95282.75;5006141;28;21594;-63
2023/03/02 10:42:19;;;;;;;6.35;5.85;;;;;;;7.89;80.83;95289.34;5000880;28;20646;-60
2023/03/02 10:44:50;;;;;;;5.20;4.88;;;;;;;7.96;79.56;95290.06;5010583;28;20717;-64
2023/03/02 10:47:22;;;;;;;4.32;3.92;;;;;;;7.76;80.39;95283.69;5015990;28;20206;-67
2023/03/02 10:49:51;;;;;;;4.82;4.13;;;;;;;7.63;79.58;95286.50;5015238;28;20247;-67
2023/03/02 10:52:20;;;;;;;5.18;4.80;;;;;;;7.76;80.91;95278.63;5015336;28;20636;-62
2023/03/02 10:54:48;;;;;;;5.25;4.85;;;;;;;7.74;80.45;95287.09;5016411;28;20265;-65
2023/03/02 10:57:28;;;;;;;5.07;4.40;;;;;;;7.68;79.62;95274.56;5017839;28;20212;-62
2023/03/02 10:59:59;;;;;;;6.68;5.13;;;;;;;7.61;80.09;95267.97;5020612;28;20261;-62
2023/03/02 11:02:28;;;;;;;4.00;3.70;;;;;;;7.69;80.04;95274.53;5020169;28;20276;-66
2023/03/02 11:04:58;;;;;;;4.07;3.72;;;;;;;7.81;79.94;95276.00;5016792;28;20210;-62
2023/03/02 11:07:26;;;;;;;4.45;4.15;;;;;;;7.83;79.91;95270.06;5021423;28;20481;-63
2023/03/02 11:10:02;;;;;;;5.05;3.40;;;;;;;7.97;78.41;95267.25;5017836;28;20785;-64
2023/03/02 11:12:30;;;;;;;3.95;3.65;;;;;;;7.99;78.82;95270.59;5019493;28;20207;-63
2023/03/02 11:15:17;;;;;;;4.55;4.25;;;;;;;8.16;77.98;95258.44;5016011;28;20905;-63
2023/03/02 11:17:47;;;;;;;5.68;5.28;;;;;;;8.49;77.06;95251.81;5015962;28;21827;-64
2023/03/02 11:20:20;;;;;;;4.78;4.32;;;;;;;8.53;76.42;95257.66;5015299;28;20202;-62
2023/03/02 11:22:54;;;;;;;5.28;3.95;;;;;;;8.32;76.88;95250.50;5018352;28;20713;-64
2023/03/02 11:25:28;;;;;;;5.43;5.03;;;;;;;8.33;77.62;95247.13;5017022;28;20198;-62
2023/03/02 11:28:00;;;;;;;4.88;4.47;;;;;;;8.42;77.79;95244.38;5016881;28;20214;-63
2023/03/02 11:30:28;;;;;;;9.02;5.03;;;;;;;8.43;76.54;95253.63;5017635;28;20632;-66
2023/03/02 11:33:02;;;;;;;9.07;4.40;;;;;;;8.52;75.28;95236.56;5018661;28;20704;-65
2023/03/02 11:35:34;;;;;;;4.60;3.83;;;;;;;8.45;75.95;95249.38;5019974;28;21381;-63
2023/03/02 11:38:10;;;;;;;4.22;3.83;;;;;;;8.60;75.20;95241.44;5019182;28;20306;-65
2023/03/02 11:40:44;;;;;;;3.83;3.40;;;;;;;8.45;74.76;95237.53;5017014;28;22613;-66
2023/03/02 11:43:12;;;;;;;4.70;3.78;;;;;;;8.55;75.11;95238.19;5018292;28;20386;-64
2023/03/02 11:45:44;;;;;;;7.40;4.13;;;;;;;8.82;75.02;95235.00;5014408;28;20805;-63
2023/03/02 11:48:18;;;;;;;6.18;4.28;;;;;;;9.06;74.57;95242.88;5018986;28;20387;-65
2023/03/02 11:50:55;;;;;;;4.03;3.70;;;;;;;8.77;74.57;95235.97;5015044;28;20249;-61